createdAt,value
2018-02-17T00:00:11.883Z,-0.90
2018-02-17T00:02:40.852Z,-0.90
2018-02-17T00:05:10.196Z,-0.80
2018-02-17T00:07:39.373Z,-0.80
2018-02-17T00:10:08.572Z,-0.70
2018-02-17T00:12:38.581Z,-0.70
2018-02-17T00:15:08.547Z,-0.70
2018-02-17T00:17:37.820Z,-0.70
2018-02-17T00:20:07.079Z,-0.80
2018-02-17T00:22:36.340Z,-0.80
2018-02-17T00:25:05.563Z,-0.80
2018-02-17T00:27:35.558Z,-0.90
2018-02-17T00:30:04.786Z,-0.80
2018-02-17T00:32:34.011Z,-0.90
2018-02-17T00:35:03.264Z,-0.90
2018-02-17T00:37:32.511Z,-1.00
2018-02-17T00:40:01.755Z,-0.90
2018-02-17T00:42:31.183Z,-0.90
2018-02-17T00:45:01.166Z,-0.80
2018-02-17T00:47:30.772Z,-0.80
2018-02-17T00:50:05.430Z,-0.80
2018-02-17T00:52:35.520Z,-0.60
2018-02-17T00:55:04.773Z,-0.60
2018-02-17T00:57:34.000Z,-0.60
2018-02-17T01:00:03.296Z,-0.50
2018-02-17T01:02:32.511Z,-0.50
2018-02-17T01:05:01.790Z,-0.40
2018-02-17T01:07:31.782Z,-0.30
2018-02-17T01:10:01.036Z,-0.30
2018-02-17T01:12:30.215Z,-0.30
2018-02-17T01:15:00.224Z,-0.40
2018-02-17T01:17:29.455Z,-0.40
2018-02-17T01:19:58.697Z,-0.40
2018-02-17T01:22:27.958Z,-0.40
2018-02-17T01:24:57.195Z,-0.40
2018-02-17T01:27:26.466Z,-0.40
2018-02-17T01:29:55.732Z,-0.50
2018-02-17T01:32:25.742Z,-0.60
2018-02-17T01:34:54.996Z,-0.60
2018-02-17T01:37:29.820Z,-0.60
2018-02-17T01:39:59.116Z,-0.60
2018-02-17T01:42:28.309Z,-0.60
2018-02-17T01:44:57.543Z,-0.70
2018-02-17T01:47:26.838Z,-0.80
2018-02-17T01:49:56.110Z,-0.80
2018-02-17T01:52:25.346Z,-0.90
2018-02-17T01:54:59.276Z,-0.90
2018-02-17T01:57:28.497Z,-0.90
2018-02-17T01:59:57.756Z,-1.00
2018-02-17T02:02:27.046Z,-1.00
2018-02-17T02:04:56.297Z,-1.10
2018-02-17T02:07:25.540Z,-1.20
2018-02-17T02:09:58.380Z,-1.30
2018-02-17T02:12:27.611Z,-1.30
2018-02-17T02:14:56.824Z,-1.40
2018-02-17T02:17:25.971Z,-1.50
2018-02-17T02:19:55.260Z,-1.40
2018-02-17T02:22:24.622Z,-1.30
2018-02-17T02:24:53.967Z,-1.30
2018-02-17T02:27:23.308Z,-1.30
2018-02-17T02:29:52.795Z,-1.20
2018-02-17T02:32:22.190Z,-1.10
2018-02-17T02:34:52.332Z,-0.90
2018-02-17T02:37:21.748Z,-0.80
2018-02-17T02:39:51.057Z,-0.70
2018-02-17T02:42:20.369Z,-0.60
2018-02-17T02:44:49.678Z,-0.50
2018-02-17T02:47:18.991Z,-0.40
2018-02-17T02:49:49.389Z,-0.30
2018-02-17T02:52:18.688Z,-0.20
2018-02-17T02:54:47.988Z,-0.10
2018-02-17T02:57:17.277Z,-0.10
2018-02-17T02:59:46.603Z,-0.10
2018-02-17T03:02:15.873Z,-0.10
2018-02-17T03:04:45.158Z,-0.10
2018-02-17T03:07:14.422Z,-0.10
2018-02-17T03:09:44.477Z,-0.10
2018-02-17T03:12:13.738Z,-0.10
2018-02-17T03:14:43.054Z,-0.10
2018-02-17T03:17:13.162Z,0.00
2018-02-17T03:19:42.437Z,0.00
2018-02-17T03:22:11.787Z,0.00
2018-02-17T03:24:41.098Z,0.00
2018-02-17T03:27:10.375Z,-0.10
2018-02-17T03:29:39.649Z,-0.10
2018-02-17T03:32:08.970Z,0.00
2018-02-17T03:34:38.246Z,0.00
2018-02-17T03:37:07.569Z,0.00
2018-02-17T03:39:36.928Z,0.10
2018-02-17T03:42:07.032Z,0.20
2018-02-17T03:44:36.327Z,0.20
2018-02-17T03:47:05.577Z,0.20
2018-02-17T03:49:35.672Z,0.30
2018-02-17T03:52:04.941Z,0.30
2018-02-17T03:54:35.259Z,0.40
2018-02-17T03:57:05.290Z,0.40
2018-02-17T03:59:35.315Z,0.40
2018-02-17T04:02:04.628Z,0.40
2018-02-17T04:04:33.977Z,0.40
2018-02-17T04:07:03.308Z,0.50
2018-02-17T04:09:32.549Z,0.50
2018-02-17T04:12:01.806Z,0.50
2018-02-17T04:14:31.108Z,0.50
2018-02-17T04:17:00.414Z,0.60
2018-02-17T04:19:29.767Z,0.60
2018-02-17T04:21:59.097Z,0.60
2018-02-17T04:24:28.339Z,0.50
2018-02-17T04:26:57.627Z,0.50
2018-02-17T04:29:26.901Z,0.50
2018-02-17T04:31:56.306Z,0.50
2018-02-17T04:34:26.382Z,0.30
2018-02-17T04:36:55.856Z,0.40
2018-02-17T04:39:25.256Z,0.30
2018-02-17T04:41:54.578Z,0.20
2018-02-17T04:47:27.053Z,0.10
2018-02-17T04:50:01.869Z,0.10
2018-02-17T04:52:36.838Z,0.00
2018-02-17T04:55:23.049Z,-0.10
2018-02-17T04:57:54.476Z,-0.10
2018-02-17T05:00:44.525Z,-0.30
2018-02-17T05:06:36.720Z,-0.50
2018-02-17T05:09:06.062Z,-0.50
2018-02-17T05:11:36.019Z,-0.50
2018-02-17T05:14:20.222Z,-0.40
2018-02-17T05:16:55.950Z,-0.40
2018-02-17T05:19:31.794Z,-0.40
2018-02-17T05:25:21.566Z,-0.50
2018-02-17T05:27:53.458Z,-0.50
2018-02-17T05:30:23.924Z,-0.60
2018-02-17T05:33:07.097Z,-0.70
2018-02-17T05:35:36.470Z,-0.60
2018-02-17T05:38:05.739Z,-0.50
2018-02-17T05:40:45.904Z,-0.50
2018-02-17T05:43:15.232Z,-0.50
2018-02-17T05:46:00.182Z,-0.50
2018-02-17T05:48:33.067Z,-0.50
2018-02-17T05:51:07.543Z,-0.40
2018-02-17T05:53:36.791Z,-0.40
2018-02-17T05:56:06.073Z,-0.40
2018-02-17T05:58:37.199Z,-0.40
2018-02-17T06:01:07.342Z,-0.40
2018-02-17T06:03:36.687Z,-0.40
2018-02-17T06:06:06.777Z,-0.40
2018-02-17T06:08:36.120Z,-0.40
2018-02-17T06:11:05.479Z,-0.40
2018-02-17T06:13:34.740Z,-0.40
2018-02-17T06:16:05.008Z,-0.40
2018-02-17T06:18:35.046Z,-0.20
2018-02-17T06:21:04.396Z,-0.30
2018-02-17T06:23:34.479Z,-0.10
2018-02-17T06:26:03.791Z,-0.20
2018-02-17T06:28:33.119Z,-0.10
2018-02-17T06:31:03.171Z,-0.10
2018-02-17T06:33:33.621Z,-0.10
2018-02-17T06:36:02.902Z,-0.10
2018-02-17T06:38:32.960Z,0.00
2018-02-17T06:41:02.248Z,-0.10
2018-02-17T06:43:31.506Z,0.00
2018-02-17T06:46:00.943Z,0.00
2018-02-17T06:48:30.244Z,0.10
2018-02-17T06:50:59.515Z,0.10
2018-02-17T06:53:28.801Z,0.10
2018-02-17T06:55:58.143Z,0.20
2018-02-17T06:58:27.446Z,0.30
2018-02-17T07:00:56.593Z,0.40
2018-02-17T07:03:39.554Z,0.40
2018-02-17T07:06:08.863Z,0.40
2018-02-17T07:08:38.115Z,0.50
2018-02-17T07:11:07.292Z,0.60
2018-02-17T07:13:36.546Z,0.70
2018-02-17T07:16:05.808Z,0.80
2018-02-17T07:18:35.025Z,0.80
2018-02-17T07:21:04.321Z,0.80
2018-02-17T07:23:33.593Z,0.90
2018-02-17T07:26:02.821Z,0.90
2018-02-17T07:28:32.050Z,1.00
2018-02-17T07:31:01.286Z,1.00
2018-02-17T07:33:30.529Z,1.10
2018-02-17T07:35:59.766Z,1.10
2018-02-17T07:38:28.976Z,1.20
2018-02-17T07:40:58.178Z,1.20
2018-02-17T07:43:28.165Z,1.20
2018-02-17T07:45:57.382Z,1.10
2018-02-17T07:48:26.638Z,1.20
2018-02-17T07:50:55.906Z,1.20
2018-02-17T07:53:25.106Z,1.30
2018-02-17T07:55:54.363Z,1.30
2018-02-17T07:58:24.443Z,1.50
2018-02-17T08:00:53.829Z,1.50
2018-02-17T08:03:23.104Z,1.60
2018-02-17T08:05:53.092Z,1.50
2018-02-17T08:08:22.374Z,1.50
2018-02-17T08:10:51.648Z,1.50
2018-02-17T08:13:20.894Z,1.30
2018-02-17T08:15:50.113Z,1.40
2018-02-17T08:18:19.358Z,1.50
2018-02-17T08:20:48.532Z,1.40
2018-02-17T08:23:17.775Z,1.40
2018-02-17T08:25:46.983Z,1.50
2018-02-17T08:28:16.250Z,1.50
2018-02-17T08:30:46.331Z,1.60
2018-02-17T08:33:35.072Z,1.50
2018-02-17T08:36:14.755Z,1.60
2018-02-17T08:38:46.063Z,1.70
2018-02-17T08:41:15.268Z,1.70
2018-02-17T08:43:48.734Z,1.80
2018-02-17T08:46:18.012Z,1.80
2018-02-17T08:48:47.230Z,1.90
2018-02-17T08:51:16.503Z,2.00
2018-02-17T08:53:50.088Z,2.10
2018-02-17T08:56:25.067Z,2.10
2018-02-17T08:58:58.778Z,2.20
2018-02-17T09:01:27.996Z,2.20
2018-02-17T09:03:57.267Z,2.20
2018-02-17T09:06:26.533Z,2.20
2018-02-17T09:08:55.781Z,2.20
2018-02-17T09:11:24.991Z,2.30
2018-02-17T09:14:01.674Z,2.50
2018-02-17T09:16:30.894Z,2.70
2018-02-17T09:19:02.097Z,2.80
2018-02-17T09:21:32.130Z,3.10
2018-02-17T09:24:01.354Z,3.10
2018-02-17T09:26:30.669Z,3.10
2018-02-17T09:28:59.873Z,3.30
2018-02-17T09:31:29.059Z,3.30
2018-02-17T09:33:59.077Z,3.40
2018-02-17T09:36:28.310Z,3.40
2018-02-17T09:38:57.534Z,3.50
2018-02-17T09:41:26.766Z,3.60
2018-02-17T09:43:55.996Z,3.60
2018-02-17T09:46:25.254Z,3.70
2018-02-17T09:48:54.482Z,3.80
2018-02-17T09:51:34.904Z,4.00
2018-02-17T09:54:04.114Z,4.30
2018-02-17T09:56:33.351Z,4.60
2018-02-17T09:59:02.605Z,4.70
2018-02-17T10:01:32.616Z,5.00
2018-02-17T10:04:02.621Z,5.00
2018-02-17T10:06:31.908Z,5.00
2018-02-17T10:09:01.160Z,5.10
2018-02-17T10:11:33.503Z,5.20
2018-02-17T10:14:15.417Z,5.20
2018-02-17T10:16:44.623Z,5.20
2018-02-17T10:19:13.830Z,5.20
2018-02-17T10:21:50.392Z,5.20
2018-02-17T10:24:20.384Z,5.40
2018-02-17T10:26:49.568Z,5.40
2018-02-17T10:29:21.820Z,5.50
2018-02-17T10:31:51.102Z,5.60
2018-02-17T10:34:46.129Z,5.60
2018-02-17T10:37:15.348Z,5.80
2018-02-17T10:39:44.557Z,5.80
2018-02-17T10:42:13.732Z,5.70
2018-02-17T10:44:44.999Z,5.80
2018-02-17T10:47:14.176Z,5.60
2018-02-17T10:52:22.862Z,5.60
2018-02-17T10:54:52.036Z,5.60
2018-02-17T10:57:21.278Z,5.50
2018-02-17T10:59:50.470Z,5.30
2018-02-17T11:02:23.724Z,5.30
2018-02-17T11:04:52.944Z,5.20
2018-02-17T11:07:22.014Z,5.30
2018-02-17T11:09:51.231Z,5.30
2018-02-17T11:12:20.524Z,5.20
2018-02-17T11:14:49.754Z,5.20
2018-02-17T11:17:19.009Z,5.10
2018-02-17T11:19:48.991Z,5.30
2018-02-17T11:22:18.196Z,5.30
2018-02-17T11:24:47.518Z,5.40
2018-02-17T11:27:17.242Z,5.60
2018-02-17T11:29:46.981Z,5.60
2018-02-17T11:32:16.266Z,5.40
2018-02-17T11:34:45.466Z,5.20
2018-02-17T11:37:14.703Z,5.20
2018-02-17T11:39:43.913Z,5.20
2018-02-17T11:42:13.187Z,5.30
2018-02-17T11:47:54.445Z,5.60
2018-02-17T11:50:23.691Z,5.70
2018-02-17T11:52:52.891Z,5.70
2018-02-17T11:55:22.168Z,5.80
2018-02-17T11:57:56.947Z,5.90
2018-02-17T12:00:26.168Z,5.90
2018-02-17T12:02:55.398Z,5.90
2018-02-17T12:05:33.204Z,5.80
2018-02-17T12:08:03.374Z,5.80
2018-02-17T12:10:32.626Z,5.70
2018-02-17T12:13:01.830Z,5.60
2018-02-17T12:15:36.064Z,5.50
2018-02-17T12:18:05.797Z,5.20
2018-02-17T12:20:35.858Z,4.90
2018-02-17T12:23:05.110Z,4.80
2018-02-17T12:25:34.350Z,4.70
2018-02-17T12:28:03.578Z,4.50
2018-02-17T12:30:33.569Z,4.60
2018-02-17T12:33:02.830Z,4.60
2018-02-17T12:35:32.050Z,4.70
2018-02-17T12:38:03.249Z,4.70
2018-02-17T12:40:32.524Z,4.70
2018-02-17T12:43:02.480Z,4.50
2018-02-17T12:45:31.711Z,4.50
2018-02-17T12:48:00.916Z,4.40
2018-02-17T12:50:30.192Z,4.50
2018-02-17T12:52:59.397Z,4.50
2018-02-17T12:55:28.649Z,4.50
2018-02-17T12:57:57.923Z,4.50
2018-02-17T13:00:27.892Z,4.50
2018-02-17T13:02:57.109Z,4.50
2018-02-17T13:05:26.368Z,4.50
2018-02-17T13:07:56.303Z,4.60
2018-02-17T13:10:25.538Z,4.60
2018-02-17T13:13:02.002Z,4.40
2018-02-17T13:15:31.253Z,4.50
2018-02-17T13:18:00.485Z,4.40
2018-02-17T13:20:29.716Z,4.50
2018-02-17T13:22:58.928Z,4.60
2018-02-17T13:25:28.121Z,4.70
2018-02-17T13:27:57.263Z,4.80
2018-02-17T13:30:26.463Z,4.80
2018-02-17T13:32:55.692Z,4.80
2018-02-17T13:35:24.941Z,4.90
2018-02-17T13:37:54.178Z,4.90
2018-02-17T13:40:30.044Z,4.80
2018-02-17T13:42:59.271Z,4.90
2018-02-17T13:45:30.126Z,4.50
2018-02-17T13:47:59.332Z,4.50
2018-02-17T13:50:28.573Z,4.30
2018-02-17T13:52:57.768Z,4.20
2018-02-17T13:55:27.025Z,4.30
2018-02-17T13:57:56.252Z,4.40
2018-02-17T14:00:25.473Z,4.40
2018-02-17T14:02:54.711Z,4.50
2018-02-17T14:05:24.687Z,4.60
2018-02-17T14:07:53.887Z,4.60
2018-02-17T14:10:23.130Z,4.60
2018-02-17T14:12:52.378Z,4.50
2018-02-17T14:15:21.613Z,4.50
2018-02-17T14:17:52.812Z,4.50
2018-02-17T14:20:22.032Z,4.50
2018-02-17T14:22:52.047Z,4.30
2018-02-17T14:25:21.295Z,4.30
2018-02-17T14:27:50.503Z,4.40
2018-02-17T14:30:19.724Z,4.40
2018-02-17T14:32:49.752Z,4.40
2018-02-17T14:35:18.959Z,4.30
2018-02-17T14:37:48.178Z,4.40
2018-02-17T14:40:17.364Z,4.50
2018-02-17T14:42:46.632Z,4.50
2018-02-17T14:45:15.805Z,4.50
2018-02-17T14:47:45.020Z,4.60
2018-02-17T14:50:14.256Z,4.70
2018-02-17T14:52:43.510Z,4.70
2018-02-17T14:55:13.494Z,4.60
2018-02-17T14:57:42.790Z,4.60
2018-02-17T15:00:12.776Z,4.50
2018-02-17T15:02:41.966Z,4.50
2018-02-17T15:05:11.239Z,4.30
2018-02-17T15:07:40.495Z,4.10
2018-02-17T15:10:09.700Z,3.90
2018-02-17T15:12:38.948Z,3.80
2018-02-17T15:15:08.945Z,3.60
2018-02-17T15:17:38.199Z,3.50
2018-02-17T15:20:07.434Z,3.50
2018-02-17T15:22:36.678Z,3.50
2018-02-17T15:25:05.912Z,3.50
2018-02-17T15:27:35.171Z,3.50
2018-02-17T15:30:04.423Z,3.50
2018-02-17T15:32:33.676Z,3.50
2018-02-17T15:35:03.655Z,3.60
2018-02-17T15:37:32.871Z,3.50
2018-02-17T15:40:02.134Z,3.50
2018-02-17T15:42:31.476Z,3.50
2018-02-17T15:45:00.679Z,3.60
2018-02-17T15:47:29.938Z,3.60
2018-02-17T15:49:59.167Z,3.60
2018-02-17T15:55:26.339Z,3.60
2018-02-17T15:57:55.543Z,3.60
2018-02-17T16:00:24.770Z,3.60
2018-02-17T16:02:54.004Z,3.60
2018-02-17T16:05:23.279Z,3.60
2018-02-17T16:07:52.505Z,3.50
2018-02-17T16:10:21.791Z,3.50
2018-02-17T16:12:50.983Z,3.50
2018-02-17T16:15:20.227Z,3.50
2018-02-17T16:18:02.671Z,3.50
2018-02-17T16:20:32.695Z,3.40
2018-02-17T16:23:01.937Z,3.40
2018-02-17T16:25:31.881Z,3.40
2018-02-17T16:28:01.139Z,3.40
2018-02-17T16:30:31.164Z,3.40
2018-02-17T16:33:00.396Z,3.40
2018-02-17T16:35:30.377Z,3.40
2018-02-17T16:37:59.597Z,3.30
2018-02-17T16:40:33.407Z,3.30
2018-02-17T16:43:02.630Z,3.20
2018-02-17T16:45:32.883Z,3.20
2018-02-17T16:48:03.120Z,3.20
2018-02-17T16:50:33.146Z,3.10
2018-02-17T16:53:03.198Z,3.10
2018-02-17T16:55:33.125Z,3.10
2018-02-17T16:58:03.167Z,3.10
2018-02-17T17:00:32.479Z,3.00
2018-02-17T17:03:01.753Z,3.10
2018-02-17T17:05:30.970Z,3.10
2018-02-17T17:11:02.555Z,2.90
2018-02-17T17:13:31.840Z,2.90
2018-02-17T17:16:01.066Z,2.90
2018-02-17T17:18:30.247Z,2.90
2018-02-17T17:20:59.485Z,2.80
2018-02-17T17:23:28.710Z,2.90
2018-02-17T17:25:58.023Z,2.90
2018-02-17T17:28:27.337Z,2.90
2018-02-17T17:30:56.611Z,3.00
2018-02-17T17:33:25.878Z,3.00
2018-02-17T17:38:53.219Z,3.10
2018-02-17T17:41:22.497Z,3.10
2018-02-17T17:43:51.895Z,3.10
2018-02-17T17:46:21.163Z,3.10
2018-02-17T17:48:50.395Z,3.10
2018-02-17T17:51:19.609Z,3.10
2018-02-17T17:56:50.308Z,3.10
2018-02-17T17:59:19.688Z,3.10
2018-02-17T18:01:48.881Z,3.10
2018-02-17T18:04:18.113Z,3.10
2018-02-17T18:06:47.395Z,3.00
2018-02-17T18:09:16.769Z,3.00
2018-02-17T18:11:46.152Z,3.00
2018-02-17T18:14:15.512Z,2.90
2018-02-17T18:16:44.736Z,2.90
2018-02-17T18:19:14.073Z,2.90
2018-02-17T18:21:43.351Z,2.90
2018-02-17T18:24:12.542Z,2.90
2018-02-17T18:26:41.777Z,2.90
2018-02-17T18:29:11.038Z,2.90
2018-02-17T18:31:40.998Z,2.90
2018-02-17T18:34:10.268Z,2.90
2018-02-17T18:36:39.500Z,2.90
2018-02-17T18:39:08.722Z,2.90
2018-02-17T18:41:37.965Z,2.90
2018-02-17T18:44:12.450Z,2.90
2018-02-17T18:46:45.570Z,2.90
2018-02-17T18:49:39.528Z,2.90
2018-02-17T18:52:08.797Z,2.90
2018-02-17T18:54:44.980Z,2.90
2018-02-17T18:57:16.264Z,2.90
2018-02-17T18:59:54.208Z,2.90
2018-02-17T19:02:38.841Z,2.90
2018-02-17T19:05:08.103Z,2.90
2018-02-17T19:08:57.726Z,2.90
2018-02-17T19:11:26.977Z,2.80
2018-02-17T19:13:57.052Z,2.80
2018-02-17T19:16:26.383Z,2.80
2018-02-17T19:18:55.709Z,2.90
2018-02-17T19:21:25.744Z,2.80
2018-02-17T19:23:55.053Z,2.80
2018-02-17T19:26:24.351Z,2.90
2018-02-17T19:28:53.729Z,2.90
2018-02-17T19:31:23.005Z,2.80
2018-02-17T19:33:53.340Z,2.80
2018-02-17T19:36:22.681Z,2.80
2018-02-17T19:38:52.078Z,2.80
2018-02-17T19:41:21.697Z,2.80
2018-02-17T19:43:51.151Z,2.90
2018-02-17T19:46:20.570Z,2.80
2018-02-17T19:48:49.915Z,2.70
2018-02-17T19:51:19.382Z,2.70
2018-02-17T19:53:48.650Z,2.60
2018-02-17T19:56:18.030Z,2.70
2018-02-17T19:58:47.397Z,2.70
2018-02-17T20:01:16.724Z,2.70
2018-02-17T20:03:46.012Z,2.70
2018-02-17T20:06:15.285Z,2.70
2018-02-17T20:08:44.559Z,2.70
2018-02-17T20:11:13.879Z,2.70
2018-02-17T20:13:43.196Z,2.70
2018-02-17T20:16:12.442Z,2.80
2018-02-17T20:18:41.749Z,2.80
2018-02-17T20:21:11.059Z,2.80
2018-02-17T20:23:40.447Z,2.80
2018-02-17T20:26:09.697Z,2.80
2018-02-17T20:28:38.981Z,2.80
2018-02-17T20:31:08.263Z,2.80
2018-02-17T20:33:37.542Z,2.70
2018-02-17T20:36:06.837Z,2.70
2018-02-17T20:38:36.127Z,2.70
2018-02-17T20:41:05.354Z,2.60
2018-02-17T20:43:34.583Z,2.50
2018-02-17T20:46:03.862Z,2.60
2018-02-17T20:48:33.121Z,2.50
2018-02-17T20:51:02.474Z,2.60
2018-02-17T20:53:32.492Z,2.60
2018-02-17T20:56:01.758Z,2.60
2018-02-17T20:58:31.021Z,2.70
2018-02-17T21:01:00.358Z,2.70
2018-02-17T21:03:29.627Z,2.60
2018-02-17T21:05:58.871Z,2.70
2018-02-17T21:08:28.203Z,2.70
2018-02-17T21:10:57.587Z,2.60
2018-02-17T21:13:26.942Z,2.50
2018-02-17T21:15:56.203Z,2.50
2018-02-17T21:18:25.468Z,2.40
2018-02-17T21:20:54.919Z,2.50
2018-02-17T21:23:24.211Z,2.50
2018-02-17T21:25:53.537Z,2.50
2018-02-17T21:28:23.522Z,2.50
2018-02-17T21:30:52.852Z,2.50
2018-02-17T21:33:22.198Z,2.60
2018-02-17T21:35:52.308Z,2.60
2018-02-17T21:38:21.699Z,2.50
2018-02-17T21:40:51.055Z,2.60
2018-02-17T21:43:20.365Z,2.60
2018-02-17T21:45:49.664Z,2.50
2018-02-17T21:48:19.054Z,2.60
2018-02-17T21:50:48.472Z,2.50
2018-02-17T21:53:19.849Z,2.50
2018-02-17T21:55:49.346Z,2.40
2018-02-17T21:58:18.684Z,2.40
2018-02-17T22:00:48.898Z,2.30
2018-02-17T22:03:18.317Z,2.30
2018-02-17T22:05:47.649Z,2.30
2018-02-17T22:08:16.975Z,2.20
2018-02-17T22:10:46.329Z,2.10
2018-02-17T22:13:15.628Z,2.20
2018-02-17T22:15:45.690Z,2.20
2018-02-17T22:18:15.019Z,2.20
2018-02-17T22:20:44.321Z,2.20
2018-02-17T22:23:13.593Z,2.20
2018-02-17T22:25:42.914Z,2.10
2018-02-17T22:28:12.151Z,2.10
2018-02-17T22:30:42.159Z,2.20
2018-02-17T22:33:11.467Z,2.20
2018-02-17T22:35:40.689Z,2.20
2018-02-17T22:38:10.776Z,2.10
2018-02-17T22:40:40.045Z,2.00
2018-02-17T22:43:09.355Z,2.00
2018-02-17T22:45:39.449Z,1.90
2018-02-17T22:48:08.710Z,1.90
2018-02-17T22:50:38.026Z,1.90
2018-02-17T22:53:07.327Z,1.90
2018-02-17T22:55:36.534Z,1.90
2018-02-17T22:58:05.803Z,1.80
2018-02-17T23:00:35.083Z,1.70
2018-02-17T23:03:05.084Z,1.70
2018-02-17T23:05:34.417Z,1.70
2018-02-17T23:08:04.453Z,1.50
2018-02-17T23:10:33.741Z,1.50
2018-02-17T23:13:03.026Z,1.50
2018-02-17T23:15:32.305Z,1.40
2018-02-17T23:18:01.528Z,1.40
2018-02-17T23:20:30.799Z,1.40
2018-02-17T23:23:00.071Z,1.40
2018-02-17T23:25:29.366Z,1.40
2018-02-17T23:27:58.624Z,1.30
2018-02-17T23:30:27.984Z,1.30
2018-02-17T23:32:57.362Z,1.20
2018-02-17T23:35:27.789Z,1.00
2018-02-17T23:37:57.927Z,0.90
2018-02-17T23:40:28.008Z,0.80
2018-02-17T23:42:57.282Z,0.70
2018-02-17T23:45:27.397Z,0.50
2018-02-17T23:47:56.686Z,0.50
2018-02-17T23:50:26.047Z,0.50
2018-02-17T23:52:55.354Z,0.50
2018-02-17T23:55:24.706Z,0.60
2018-02-17T23:57:54.044Z,0.60
